Time;durP1;ratioP1;P1;durP2;ratioP2;P2;SDS_P1;SDS_P2;PMS_P1;PMS_P2;Temp;Humidity;BMP_temperature;BMP_pressure;BME280_temperature;BME280_humidity;BME280_pressure;Samples;Min_cycle;Max_cycle;Signal;HPM_P1;HPM_P2
2023/03/03 00:00:54;;;;;;;78.23;38.57;;;;;;;;;;5043668;28;20327;-75
2023/03/03 00:03:21;;;;;;;73.80;38.53;;;;;;;;;;5038594;28;20298;-74
2023/03/03 00:05:48;;;;;;;74.80;39.40;;;;;;;;;;5054443;28;20369;-75
2023/03/03 00:08:14;;;;;;;77.03;37.63;;;;;;;;;;5056840;28;20718;-75
2023/03/03 00:10:40;;;;;;;74.50;39.30;;;;;;;;;;5052300;28;20279;-76
2023/03/03 00:13:14;;;;;;;78.13;38.90;;;;;;;;;;5041853;28;20024;-75
2023/03/03 00:15:40;;;;;;;77.03;37.60;;;;;;;;;;5047797;28;20731;-76
2023/03/03 00:18:17;;;;;;;75.83;38.93;;;;;;;;;;5041441;28;20406;-75
2023/03/03 00:20:47;;;;;;;76.63;40.07;;;;;;;;;;5039227;28;20025;-75
2023/03/03 00:23:13;;;;;;;84.27;40.97;;;;;;;;;;5056972;28;20282;-76
2023/03/03 00:25:41;;;;;;;87.53;43.60;;;;;;;;;;5056743;28;20287;-75
2023/03/03 00:28:15;;;;;;;86.43;39.93;;;;;;;;;;5057502;28;20032;-76
2023/03/03 00:30:41;;;;;;;91.47;42.90;;;;;;;;;;5055425;28;20370;-76
2023/03/03 00:33:21;;;;;;;92.90;43.43;;;;;;;;;;5042772;28;20362;-76
2023/03/03 00:35:47;;;;;;;87.73;40.90;;;;;;;;;;5055795;28;20742;-75
2023/03/03 00:38:17;;;;;;;90.10;44.23;;;;;;;;;;5058282;28;20366;-76
2023/03/03 00:40:44;;;;;;;92.07;43.40;;;;;;;;;;5052671;28;20029;-75
2023/03/03 00:43:17;;;;;;;92.83;43.17;;;;;;;;;;5053912;28;20361;-76
2023/03/03 00:45:45;;;;;;;88.97;42.50;;;;;;;;;;5055897;28;20738;-76
2023/03/03 00:48:19;;;;;;;92.60;44.83;;;;;;;;;;5054647;28;20283;-76
2023/03/03 00:50:45;;;;;;;89.37;44.60;;;;;;;;;;5054752;28;20275;-75
2023/03/03 00:53:17;;;;;;;98.67;45.70;;;;;;;;;;5045708;28;21814;-76
2023/03/03 00:55:44;;;;;;;92.93;45.57;;;;;;;;;;5053952;28;21599;-76
2023/03/03 00:58:10;;;;;;;97.57;46.37;;;;;;;;;;5057726;28;20295;-76
2023/03/03 01:00:37;;;;;;;99.77;46.83;;;;;;;;;;5054887;28;20273;-75
2023/03/03 01:03:07;;;;;;;100.80;45.60;;;;;;;;;;5054009;28;20284;-76
2023/03/03 01:05:33;;;;;;;101.03;44.13;;;;;;;;;;5045380;28;20366;-75
2023/03/03 01:08:00;;;;;;;96.57;42.90;;;;;;;;;;5038662;28;20279;-76
2023/03/03 01:10:27;;;;;;;104.67;46.83;;;;;;;;;;5055370;28;20307;-76
2023/03/03 01:12:54;;;;;;;103.57;46.43;;;;;;;;;;5058039;28;20268;-75
2023/03/03 01:15:20;;;;;;;99.27;46.27;;;;;;;;;;5055934;28;20301;-75
2023/03/03 01:17:46;;;;;;;97.03;46.30;;;;;;;;;;5056650;28;20294;-74
2023/03/03 01:20:13;;;;;;;105.77;47.33;;;;;;;;;;5040794;28;20271;-75
2023/03/03 01:22:39;;;;;;;103.67;46.93;;;;;;;;;;5049266;28;20276;-76
2023/03/03 01:25:06;;;;;;;108.07;44.57;;;;;;;;;;5058541;28;20274;-76
2023/03/03 01:27:32;;;;;;;106.63;45.87;;;;;;;;;;5056541;28;20286;-73
2023/03/03 01:29:58;;;;;;;115.97;48.83;;;;;;;;;;5044685;28;20287;-75
2023/03/03 01:32:25;;;;;;;107.80;46.53;;;;;;;;;;5043610;28;20032;-75
2023/03/03 01:34:51;;;;;;;111.17;48.47;;;;;;;;;;5058219;28;20276;-76
2023/03/03 01:37:17;;;;;;;118.87;52.00;;;;;;;;;;5041498;28;20291;-76
2023/03/03 01:39:43;;;;;;;123.33;50.93;;;;;;;;;;5042690;28;20279;-76
2023/03/03 01:42:09;;;;;;;102.90;44.13;;;;;;;;;;5058970;28;20133;-75
2023/03/03 01:44:36;;;;;;;120.10;49.00;;;;;;;;;;5059772;28;20120;-76
2023/03/03 01:47:21;;;;;;;100.90;44.83;;;;;;;;;;5057340;28;20365;-75
2023/03/03 01:49:55;;;;;;;108.33;46.97;;;;;;;;;;5041842;28;20035;-75
2023/03/03 01:52:28;;;;;;;100.07;46.27;;;;;;;;;;5040472;28;20286;-75
2023/03/03 01:55:00;;;;;;;105.23;46.97;;;;;;;;;;5057298;28;20627;-75
2023/03/03 01:57:29;;;;;;;106.82;47.28;;;;;;;;;;5040532;28;20696;-76
2023/03/03 01:59:57;;;;;;;114.17;49.00;;;;;;;;;;5057372;28;20024;-75
2023/03/03 02:02:23;;;;;;;117.33;49.93;;;;;;;;;;5058399;28;20280;-75
2023/03/03 02:04:52;;;;;;;123.87;50.93;;;;;;;;;;5045448;28;20342;-75
2023/03/03 02:07:19;;;;;;;120.13;50.53;;;;;;;;;;5050240;28;20279;-76
2023/03/03 02:10:03;;;;;;;122.70;49.87;;;;;;;;;;5045432;28;20341;-75
2023/03/03 02:12:37;;;;;;;114.90;46.43;;;;;;;;;;5058720;28;20278;-75
2023/03/03 02:15:15;;;;;;;109.17;47.00;;;;;;;;;;5057248;28;20355;-75
2023/03/03 02:17:41;;;;;;;115.33;48.20;;;;;;;;;;5038286;28;20291;-76
2023/03/03 02:20:28;;;;;;;114.80;50.37;;;;;;;;;;5041165;28;20295;-75
2023/03/03 02:22:58;;;;;;;119.67;45.33;;;;;;;;;;5054364;28;20279;-76
2023/03/03 02:25:36;;;;;;;121.90;49.10;;;;;;;;;;5057437;28;21785;-76
2023/03/03 02:28:02;;;;;;;116.07;46.43;;;;;;;;;;5056390;28;20277;-75
2023/03/03 02:30:28;;;;;;;120.97;47.80;;;;;;;;;;5058612;28;20271;-75
2023/03/03 02:32:54;;;;;;;102.80;41.87;;;;;;;;;;5058120;28;20289;-76
2023/03/03 02:35:31;;;;;;;117.47;50.03;;;;;;;;;;5044386;28;20271;-76
2023/03/03 02:38:01;;;;;;;122.30;50.10;;;;;;;;;;5055005;28;20040;-76
2023/03/03 02:40:30;;;;;;;133.53;52.43;;;;;;;;;;5050562;28;20977;-76
2023/03/03 02:43:00;;;;;;;126.03;47.63;;;;;;;;;;5055760;28;20313;-75
2023/03/03 02:45:26;;;;;;;132.93;51.20;;;;;;;;;;5050357;28;20259;-76
2023/03/03 02:47:52;;;;;;;135.60;51.03;;;;;;;;;;5053709;28;20545;-76
2023/03/03 02:50:20;;;;;;;132.43;52.50;;;;;;;;;;5046358;28;20105;-75
2023/03/03 02:52:46;;;;;;;134.37;52.83;;;;;;;;;;5039611;28;20263;-76
2023/03/03 02:55:12;;;;;;;130.83;52.07;;;;;;;;;;5058045;28;20255;-76
2023/03/03 02:57:38;;;;;;;130.83;51.27;;;;;;;;;;5058246;28;20278;-76
2023/03/03 03:00:05;;;;;;;129.53;51.27;;;;;;;;;;5056784;28;20699;-76
2023/03/03 03:02:31;;;;;;;119.17;47.90;;;;;;;;;;5057498;28;20278;-76
2023/03/03 03:04:57;;;;;;;114.17;48.47;;;;;;;;;;5058238;28;20267;-75
2023/03/03 03:07:22;;;;;;;113.43;45.37;;;;;;;;;;5057892;28;20324;-76
2023/03/03 03:09:49;;;;;;;108.23;46.80;;;;;;;;;;5050490;28;20044;-76
2023/03/03 03:12:18;;;;;;;105.77;44.27;;;;;;;;;;5054037;28;20032;-76
2023/03/03 03:14:46;;;;;;;109.60;46.73;;;;;;;;;;5058173;28;20321;-76
2023/03/03 03:17:12;;;;;;;100.93;42.23;;;;;;;;;;5054226;28;20279;-76
2023/03/03 03:19:38;;;;;;;97.13;42.07;;;;;;;;;;5054082;28;20274;-76
2023/03/03 03:22:04;;;;;;;106.40;45.20;;;;;;;;;;5057841;28;20104;-75
2023/03/03 03:24:30;;;;;;;103.67;45.33;;;;;;;;;;5074290;28;20348;-76
2023/03/03 03:26:58;;;;;;;101.13;42.23;;;;;;;;;;5044662;28;20016;-76
2023/03/03 03:29:27;;;;;;;94.40;41.13;;;;;;;;;;5054676;28;20020;-76
2023/03/03 03:31:53;;;;;;;97.10;44.10;;;;;;;;;;5046049;28;20350;-76
2023/03/03 03:34:19;;;;;;;104.20;44.20;;;;;;;;;;5054678;28;20354;-76
2023/03/03 03:36:45;;;;;;;101.40;45.77;;;;;;;;;;5056980;28;20032;-76
2023/03/03 03:39:11;;;;;;;93.97;43.40;;;;;;;;;;5057274;28;20039;-76
2023/03/03 03:41:37;;;;;;;100.63;42.37;;;;;;;;;;5057334;28;20263;-76
2023/03/03 03:44:03;;;;;;;93.03;38.70;;;;;;;;;;5045869;28;20029;-75
2023/03/03 03:46:29;;;;;;;101.20;42.47;;;;;;;;;;5067837;28;20030;-76
2023/03/03 03:48:55;;;;;;;97.60;42.00;;;;;;;;;;5062135;28;20346;-76
2023/03/03 03:51:21;;;;;;;91.10;41.50;;;;;;;;;;5069369;28;20059;-76
2023/03/03 03:53:47;;;;;;;87.00;39.87;;;;;;;;;;5059511;28;20406;-76
2023/03/03 03:56:13;;;;;;;89.57;39.90;;;;;;;;;;5053052;28;20055;-76
2023/03/03 03:58:40;;;;;;;89.50;38.70;;;;;;;;;;5057635;28;20043;-76
2023/03/03 04:01:07;;;;;;;98.00;39.60;;;;;;;;;;5056379;28;20293;-76
2023/03/03 04:03:33;;;;;;;82.37;37.77;;;;;;;;;;5054363;28;20350;-76
2023/03/03 04:05:59;;;;;;;85.07;37.50;;;;;;;;;;5056619;28;20267;-76
2023/03/03 04:08:25;;;;;;;82.57;37.93;;;;;;;;;;5074625;28;20263;-76
2023/03/03 04:10:51;;;;;;;88.17;38.40;;;;;;;;;;5073769;28;20274;-76
2023/03/03 04:13:17;;;;;;;81.37;36.77;;;;;;;;;;5067630;28;20397;-75
2023/03/03 04:15:43;;;;;;;78.43;36.40;;;;;;;;;;5074762;28;20673;-76
2023/03/03 04:18:09;;;;;;;80.23;36.87;;;;;;;;;;5047743;28;20376;-75
2023/03/03 04:20:35;;;;;;;76.20;37.03;;;;;;;;;;5043303;28;20286;-76
2023/03/03 04:23:01;;;;;;;81.37;36.83;;;;;;;;;;5054499;28;20035;-76
2023/03/03 04:25:27;;;;;;;76.33;35.00;;;;;;;;;;5054671;28;20040;-75
2023/03/03 04:27:53;;;;;;;70.03;32.13;;;;;;;;;;5055597;28;20278;-76
2023/03/03 04:30:19;;;;;;;71.27;34.50;;;;;;;;;;5055566;28;20063;-75
2023/03/03 04:32:46;;;;;;;72.77;33.50;;;;;;;;;;5055676;28;20349;-76
2023/03/03 04:35:12;;;;;;;69.07;32.93;;;;;;;;;;5047554;28;20282;-75
2023/03/03 04:37:38;;;;;;;71.63;33.90;;;;;;;;;;5041169;28;20293;-75
2023/03/03 04:40:05;;;;;;;77.30;33.37;;;;;;;;;;5056171;28;20468;-74
2023/03/03 04:42:31;;;;;;;76.10;35.03;;;;;;;;;;5043228;28;20294;-75
2023/03/03 04:44:57;;;;;;;76.27;35.80;;;;;;;;;;5040952;28;20287;-75
2023/03/03 04:47:23;;;;;;;69.87;31.90;;;;;;;;;;5040763;28;20312;-76
2023/03/03 04:49:49;;;;;;;75.27;34.50;;;;;;;;;;5056338;28;20029;-76
2023/03/03 04:52:15;;;;;;;78.23;35.43;;;;;;;;;;5038072;28;20028;-76
2023/03/03 04:54:41;;;;;;;69.93;33.23;;;;;;;;;;5056811;28;20085;-76
2023/03/03 04:57:08;;;;;;;75.73;34.27;;;;;;;;;;5058761;28;20372;-76
2023/03/03 04:59:36;;;;;;;80.20;36.07;;;;;;;;;;5048985;28;20267;-76
2023/03/03 05:02:05;;;;;;;71.33;34.00;;;;;;;;;;5042332;28;20271;-75
2023/03/03 05:04:31;;;;;;;70.37;34.80;;;;;;;;;;5058600;28;20271;-76
2023/03/03 05:06:57;;;;;;;70.80;31.97;;;;;;;;;;5059167;28;20317;-75
2023/03/03 05:09:23;;;;;;;74.50;33.53;;;;;;;;;;5043868;28;20478;-76
2023/03/03 05:11:52;;;;;;;74.27;33.87;;;;;;;;;;5060633;28;20044;-75
2023/03/03 05:14:18;;;;;;;74.67;34.13;;;;;;;;;;5059305;28;20283;-75
2023/03/03 05:16:44;;;;;;;69.63;32.27;;;;;;;;;;5057249;28;21790;-75
2023/03/03 05:19:12;;;;;;;74.67;33.70;;;;;;;;;;5060138;28;20275;-75
2023/03/03 05:21:42;;;;;;;74.17;30.87;;;;;;;;;;5045357;28;20067;-75
2023/03/03 05:24:12;;;;;;;67.83;30.97;;;;;;;;;;5057868;28;20275;-76
2023/03/03 05:26:38;;;;;;;73.63;33.83;;;;;;;;;;5058805;28;21210;-76
2023/03/03 05:29:05;;;;;;;71.73;32.00;;;;;;;;;;5045163;28;20291;-76
2023/03/03 05:31:31;;;;;;;69.63;33.27;;;;;;;;;;5059381;28;20371;-76
2023/03/03 05:33:56;;;;;;;66.73;33.13;;;;;;;;;;5044009;28;20354;-75
2023/03/03 05:36:22;;;;;;;69.20;32.13;;;;;;;;;;5058199;28;20449;-74
2023/03/03 05:38:49;;;;;;;74.73;31.30;;;;;;;;;;5041911;28;20043;-75
2023/03/03 05:41:17;;;;;;;66.17;31.67;;;;;;;;;;5058503;28;20271;-76
2023/03/03 05:43:43;;;;;;;73.53;33.13;;;;;;;;;;5041764;28;20781;-75
2023/03/03 05:46:10;;;;;;;73.40;32.00;;;;;;;;;;5056607;28;20278;-76
2023/03/03 05:48:36;;;;;;;73.43;32.43;;;;;;;;;;5048879;28;20090;-75
2023/03/03 05:51:01;;;;;;;82.47;34.77;;;;;;;;;;5056990;28;20284;-75
2023/03/03 05:53:28;;;;;;;84.57;33.30;;;;;;;;;;5041325;28;20279;-75
2023/03/03 05:55:54;;;;;;;71.07;34.17;;;;;;;;;;5059186;28;20033;-76
2023/03/03 05:58:20;;;;;;;73.63;34.63;;;;;;;;;;5060321;28;20370;-76
2023/03/03 06:00:46;;;;;;;72.30;32.87;;;;;;;;;;5059158;28;21502;-77
2023/03/03 06:03:12;;;;;;;78.50;35.13;;;;;;;;;;5043468;28;20735;-76
2023/03/03 06:05:38;;;;;;;74.37;32.67;;;;;;;;;;5058834;28;20294;-75
2023/03/03 06:08:04;;;;;;;71.33;32.23;;;;;;;;;;5045782;28;20036;-75
2023/03/03 06:10:30;;;;;;;71.37;32.40;;;;;;;;;;5041230;28;20036;-75
2023/03/03 06:12:57;;;;;;;68.13;32.80;;;;;;;;;;5057485;28;20305;-76
2023/03/03 06:15:23;;;;;;;62.90;30.23;;;;;;;;;;5041744;28;20335;-76
2023/03/03 06:17:49;;;;;;;67.67;30.67;;;;;;;;;;5042472;28;20408;-76
2023/03/03 06:20:15;;;;;;;65.60;30.73;;;;;;;;;;5042681;28;20477;-76
2023/03/03 06:22:41;;;;;;;66.50;30.80;;;;;;;;;;5039755;28;20468;-75
2023/03/03 06:25:08;;;;;;;63.13;30.70;;;;;;;;;;5044652;28;20493;-76
2023/03/03 06:27:34;;;;;;;62.87;29.47;;;;;;;;;;5041103;28;20129;-76
2023/03/03 06:30:00;;;;;;;66.37;29.40;;;;;;;;;;5045378;28;20279;-76
2023/03/03 06:32:26;;;;;;;62.63;31.00;;;;;;;;;;5041434;28;20354;-76
2023/03/03 06:34:52;;;;;;;65.53;32.63;;;;;;;;;;5057082;28;20417;-76
2023/03/03 06:37:18;;;;;;;69.47;31.60;;;;;;;;;;5042233;28;20071;-74
2023/03/03 06:39:44;;;;;;;69.47;32.13;;;;;;;;;;5042635;28;20271;-75
2023/03/03 06:42:10;;;;;;;65.47;31.57;;;;;;;;;;5056444;28;20276;-76
2023/03/03 06:44:36;;;;;;;67.27;32.10;;;;;;;;;;5038316;28;21053;-75
2023/03/03 06:47:02;;;;;;;65.57;31.90;;;;;;;;;;5041661;28;20040;-75
2023/03/03 06:49:28;;;;;;;69.83;32.17;;;;;;;;;;5056164;28;20302;-76
2023/03/03 06:51:57;;;;;;;63.70;30.70;;;;;;;;;;5057107;28;20271;-76
2023/03/03 06:54:28;;;;;;;76.90;33.43;;;;;;;;;;5060143;28;20802;-75
2023/03/03 06:56:58;;;;;;;65.30;27.50;;;;;;;;;;5059172;28;20759;-75
2023/03/03 06:59:24;;;;;;;69.83;31.40;;;;;;;;;;5057087;28;20271;-76
2023/03/03 07:01:50;;;;;;;70.07;29.57;;;;;;;;;;5057177;28;20935;-76
2023/03/03 07:04:24;;;;;;;63.47;29.67;;;;;;;;;;5056480;28;20303;-75
2023/03/03 07:06:52;;;;;;;72.63;30.60;;;;;;;;;;5058137;28;20282;-76
2023/03/03 07:09:23;;;;;;;65.30;29.90;;;;;;;;;;5039608;28;20296;-76
2023/03/03 07:11:50;;;;;;;62.33;27.80;;;;;;;;;;5038814;28;20275;-76
2023/03/03 07:14:18;;;;;;;62.40;29.87;;;;;;;;;;5056115;28;20287;-76
2023/03/03 07:16:46;;;;;;;71.20;30.93;;;;;;;;;;5039869;28;20291;-76
2023/03/03 07:19:41;;;;;;;76.60;35.97;;;;;;;;;;5041705;28;20294;-76
2023/03/03 07:22:13;;;;;;;80.47;38.70;;;;;;;;;;5040349;28;20306;-76
2023/03/03 07:24:43;;;;;;;58.80;27.73;;;;;;;;;;5047563;28;20451;-76
2023/03/03 07:27:17;;;;;;;68.20;32.87;;;;;;;;;;5061099;28;20029;-77
2023/03/03 07:29:43;;;;;;;178.37;81.07;;;;;;;;;;5058149;28;20275;-76
2023/03/03 07:32:26;;;;;;;174.87;84.90;;;;;;;;;;5041765;28;20302;-75
2023/03/03 07:34:54;;;;;;;86.80;45.40;;;;;;;;;;5046592;28;20348;-76
2023/03/03 07:37:29;;;;;;;55.10;25.67;;;;;;;;;;5040618;28;20288;-75
2023/03/03 07:39:58;;;;;;;57.13;26.90;;;;;;;;;;5040397;28;20275;-76
2023/03/03 07:42:26;;;;;;;63.23;27.80;;;;;;;;;;5051314;28;20399;-76
2023/03/03 07:44:53;;;;;;;63.27;29.13;;;;;;;;;;5040877;28;20275;-76
2023/03/03 07:47:21;;;;;;;63.83;32.87;;;;;;;;;;5040712;28;20275;-76
2023/03/03 07:49:48;;;;;;;49.40;25.80;;;;;;;;;;5041947;28;20283;-76
2023/03/03 07:52:33;;;;;;;56.57;28.70;;;;;;;;;;5059736;28;20337;-76
2023/03/03 07:55:00;;;;;;;53.97;25.73;;;;;;;;;;5058507;28;20271;-76
2023/03/03 07:57:45;;;;;;;52.30;26.33;;;;;;;;;;5041647;28;20780;-77
2023/03/03 08:00:17;;;;;;;58.27;27.33;;;;;;;;;;5045182;28;20325;-76
2023/03/03 08:02:44;;;;;;;59.33;27.73;;;;;;;;;;5058515;28;20354;-77
2023/03/03 08:05:23;;;;;;;55.63;26.00;;;;;;;;;;5044149;28;20376;-77
2023/03/03 08:07:52;;;;;;;54.03;26.63;;;;;;;;;;5060702;28;21166;-76
2023/03/03 08:10:28;;;;;;;151.43;80.73;;;;;;;;;;5045651;28;20344;-76
2023/03/03 08:13:08;;;;;;;87.67;44.77;;;;;;;;;;5060112;28;20777;-76
2023/03/03 08:15:36;;;;;;;71.20;36.03;;;;;;;;;;5058522;28;20294;-77
2023/03/03 08:18:14;;;;;;;61.67;30.57;;;;;;;;;;5040047;28;20302;-76
2023/03/03 08:20:46;;;;;;;51.40;26.20;;;;;;;;;;5040809;28;20266;-75
2023/03/03 08:23:12;;;;;;;;;;;;;;;;;;5059822;28;20288;-77
2023/03/03 08:25:39;;;;;;;49.63;24.30;;;;;;;;;;5043936;28;19916;-77
2023/03/03 08:28:08;;;;;;;54.20;30.27;;;;;;;;;;5059805;28;20064;-76
2023/03/03 08:30:33;;;;;;;49.63;25.20;;;;;;;;;;5058831;28;20267;-76
2023/03/03 08:33:00;;;;;;;59.67;29.40;;;;;;;;;;5063391;28;20874;-76
2023/03/03 08:35:26;;;;;;;49.07;25.80;;;;;;;;;;5050695;28;20075;-76
2023/03/03 08:37:53;;;;;;;50.77;24.97;;;;;;;;;;5047343;28;20294;-77
2023/03/03 08:40:21;;;;;;;56.83;25.97;;;;;;;;;;5047637;28;20028;-77
2023/03/03 08:42:47;;;;;;;55.17;24.73;;;;;;;;;;5071247;28;20290;-76
2023/03/03 08:45:14;;;;;;;55.63;25.83;;;;;;;;;;5061314;28;20254;-77
2023/03/03 08:47:43;;;;;;;53.67;26.77;;;;;;;;;;5061182;28;20052;-76
2023/03/03 08:50:10;;;;;;;61.07;28.90;;;;;;;;;;5077323;28;20266;-79
2023/03/03 08:52:38;;;;;;;55.53;28.17;;;;;;;;;;5045982;28;20322;-76
2023/03/03 08:55:04;;;;;;;48.03;23.10;;;;;;;;;;5054538;28;20271;-75
2023/03/03 08:57:33;;;;;;;48.30;25.73;;;;;;;;;;5071763;28;20317;-76
2023/03/03 08:59:59;;;;;;;48.50;24.93;;;;;;;;;;5049688;28;20334;-76
2023/03/03 09:02:27;;;;;;;47.70;23.80;;;;;;;;;;5055751;28;20302;-76
2023/03/03 09:04:53;;;;;;;52.83;24.47;;;;;;;;;;5059908;28;20020;-76
2023/03/03 09:07:21;;;;;;;47.60;23.73;;;;;;;;;;5055765;28;20273;-75
2023/03/03 09:09:47;;;;;;;50.13;24.07;;;;;;;;;;5060825;28;20364;-76
2023/03/03 09:12:18;;;;;;;53.23;25.13;;;;;;;;;;5077256;28;20791;-77
2023/03/03 09:14:44;;;;;;;49.67;24.73;;;;;;;;;;5060749;28;20615;-77
2023/03/03 09:17:22;;;;;;;56.73;27.87;;;;;;;;;;5070747;28;20333;-77
2023/03/03 09:19:49;;;;;;;49.00;24.03;;;;;;;;;;5064434;28;20274;-76
2023/03/03 09:22:19;;;;;;;49.53;24.67;;;;;;;;;;5060753;28;20267;-76
2023/03/03 09:24:46;;;;;;;53.07;26.50;;;;;;;;;;5052275;28;20603;-76
2023/03/03 09:27:19;;;;;;;53.03;27.60;;;;;;;;;;5053702;28;20281;-76
2023/03/03 09:29:45;;;;;;;55.03;24.40;;;;;;;;;;5046932;28;20653;-77
2023/03/03 09:32:17;;;;;;;47.30;23.07;;;;;;;;;;5059484;28;20271;-76
2023/03/03 09:34:42;;;;;;;63.97;26.77;;;;;;;;;;5058848;28;20467;-77
2023/03/03 09:37:28;;;;;;;54.53;26.53;;;;;;;;;;5070225;28;20040;-76
2023/03/03 09:39:56;;;;;;;56.27;26.57;;;;;;;;;;5059023;28;20021;-76
2023/03/03 09:42:25;;;;;;;54.90;26.53;;;;;;;;;;5064570;28;20271;-76
2023/03/03 09:44:57;;;;;;;55.27;26.57;;;;;;;;;;5063096;28;20275;-77
2023/03/03 09:47:26;;;;;;;54.30;24.13;;;;;;;;;;5051858;28;20653;-77
2023/03/03 09:50:18;;;;;;;54.93;26.57;;;;;;;;;;5051117;28;20032;-77
2023/03/03 09:52:49;;;;;;;51.53;25.50;;;;;;;;;;5059954;28;20342;-77
2023/03/03 09:55:24;;;;;;;46.43;23.03;;;;;;;;;;5059983;28;20342;-77
2023/03/03 09:58:02;;;;;;;53.67;23.63;;;;;;;;;;5041056;28;20337;-76
2023/03/03 10:00:27;;;;;;;50.17;21.87;;;;;;;;;;5071776;28;20289;-77
2023/03/03 10:03:05;;;;;;;54.07;23.97;;;;;;;;;;5067507;28;20630;-78
2023/03/03 10:05:37;;;;;;;48.07;24.53;;;;;;;;;;5046252;28;20020;-78
2023/03/03 10:08:23;;;;;;;44.03;21.63;;;;;;;;;;5059596;28;20275;-76
2023/03/03 10:10:58;;;;;;;47.10;23.10;;;;;;;;;;5043351;28;20033;-78
2023/03/03 10:13:33;;;;;;;49.40;24.10;;;;;;;;;;5046922;28;20260;-78
2023/03/03 10:16:11;;;;;;;53.70;24.17;;;;;;;;;;5048565;28;20274;-76
2023/03/03 10:18:44;;;;;;;49.30;24.50;;;;;;;;;;5049955;28;20829;-78
2023/03/03 10:21:24;;;;;;;52.43;24.60;;;;;;;;;;5041698;28;20291;-76
2023/03/03 10:23:53;;;;;;;48.47;23.87;;;;;;;;;;5058649;28;20323;-76
2023/03/03 10:26:19;;;;;;;49.87;22.90;;;;;;;;;;5061314;28;20279;-78
2023/03/03 10:29:04;;;;;;;43.47;22.07;;;;;;;;;;5046877;28;20179;-75
2023/03/03 10:31:39;;;;;;;51.70;23.60;;;;;;;;;;5042971;28;21002;-76
2023/03/03 10:34:07;;;;;;;48.90;23.23;;;;;;;;;;5064908;28;20279;-75
2023/03/03 10:36:52;;;;;;;51.37;23.00;;;;;;;;;;5061289;28;20283;-75
2023/03/03 10:39:43;;;;;;;49.50;22.20;;;;;;;;;;5061106;28;20279;-76
2023/03/03 10:42:22;;;;;;;48.03;22.30;;;;;;;;;;5059457;28;20279;-76
2023/03/03 10:44:55;;;;;;;54.23;24.60;;;;;;;;;;5048662;28;20280;-77
2023/03/03 10:47:34;;;;;;;44.93;19.83;;;;;;;;;;5060980;28;20293;-77
2023/03/03 10:50:06;;;;;;;51.13;22.83;;;;;;;;;;5060532;28;20904;-77
2023/03/03 10:52:38;;;;;;;52.22;23.50;;;;;;;;;;5042412;28;20804;-77
2023/03/03 10:55:10;;;;;;;48.70;23.67;;;;;;;;;;5060432;28;20025;-76
2023/03/03 10:57:39;;;;;;;46.78;22.98;;;;;;;;;;5051449;28;20044;-75
2023/03/03 11:00:07;;;;;;;47.27;22.27;;;;;;;;;;5049237;28;20025;-76
2023/03/03 11:02:57;;;;;;;51.20;23.87;;;;;;;;;;5062522;28;20500;-77
2023/03/03 11:05:32;;;;;;;52.23;24.60;;;;;;;;;;5044063;28;20017;-77
2023/03/03 11:08:02;;;;;;;49.50;24.03;;;;;;;;;;5057863;28;20032;-76
2023/03/03 11:10:34;;;;;;;50.20;24.57;;;;;;;;;;5061135;28;20029;-77
2023/03/03 11:13:10;;;;;;;56.47;23.47;;;;;;;;;;5059945;28;20039;-77
2023/03/03 11:15:36;;;;;;;43.73;20.93;;;;;;;;;;5057513;28;20085;-77
2023/03/03 11:18:02;;;;;;;49.53;24.57;;;;;;;;;;5061187;28;21649;-76
2023/03/03 11:20:34;;;;;;;51.87;25.50;;;;;;;;;;5045255;28;20029;-77
2023/03/03 11:23:06;;;;;;;48.20;23.33;;;;;;;;;;5047370;28;20048;-77
2023/03/03 11:25:57;;;;;;;55.37;24.03;;;;;;;;;;5059853;28;20036;-76
2023/03/03 11:28:31;;;;;;;50.47;24.10;;;;;;;;;;5046860;28;20934;-77
2023/03/03 11:31:09;;;;;;;49.87;24.67;;;;;;;;;;5045172;28;20429;-77
2023/03/03 11:33:39;;;;;;;49.40;22.50;;;;;;;;;;5062195;28;20028;-77
2023/03/03 11:36:13;;;;;;;43.30;20.00;;;;;;;;;;5053619;28;20029;-77
2023/03/03 11:38:43;;;;;;;49.47;23.97;;;;;;;;;;5045254;28;20087;-76
2023/03/03 11:41:15;;;;;;;50.57;24.83;;;;;;;;;;5046685;28;20028;-77
2023/03/03 11:43:49;;;;;;;53.63;22.23;;;;;;;;;;5041230;28;20025;-76
2023/03/03 11:46:17;;;;;;;50.43;24.07;;;;;;;;;;5062095;28;20032;-77
2023/03/03 11:48:45;;;;;;;48.60;23.60;;;;;;;;;;5046876;28;20070;-77
2023/03/03 11:51:14;;;;;;;43.70;20.67;;;;;;;;;;5063107;28;20028;-77
2023/03/03 11:53:46;;;;;;;46.93;23.50;;;;;;;;;;5041925;28;20109;-77
2023/03/03 11:56:27;;;;;;;46.53;22.23;;;;;;;;;;5061228;28;20032;-77
2023/03/03 11:59:07;;;;;;;48.97;23.70;;;;;;;;;;5059393;28;20751;-77
2023/03/03 12:01:51;;;;;;;45.13;22.47;;;;;;;;;;5060105;28;21531;-76
2023/03/03 12:04:23;;;;;;;50.37;24.50;;;;;;;;;;5056833;28;20033;-77
2023/03/03 12:06:49;;;;;;;45.75;21.30;;;;;;;;;;5062902;28;20052;-77
2023/03/03 12:09:18;;;;;;;47.13;24.17;;;;;;;;;;5048198;28;20099;-77
2023/03/03 12:11:45;;;;;;;48.33;22.10;;;;;;;;;;5041169;28;20759;-77
2023/03/03 12:14:20;;;;;;;49.87;24.90;;;;;;;;;;5043207;28;20043;-77
2023/03/03 12:16:46;;;;;;;52.50;24.43;;;;;;;;;;5044752;28;20017;-77
2023/03/03 12:19:20;;;;;;;47.57;22.60;;;;;;;;;;5061260;28;20081;-77
2023/03/03 12:21:55;;;;;;;50.87;23.73;;;;;;;;;;5060287;28;20106;-75
2023/03/03 12:24:32;;;;;;;46.60;23.37;;;;;;;;;;5054104;28;20056;-75
2023/03/03 12:26:58;;;;;;;48.70;21.37;;;;;;;;;;5059556;28;20033;-76
2023/03/03 12:29:24;;;;;;;52.23;23.80;;;;;;;;;;5060374;28;20052;-76
2023/03/03 12:32:00;;;;;;;50.53;24.30;;;;;;;;;;5061100;28;20067;-75
2023/03/03 12:34:29;;;;;;;47.50;21.50;;;;;;;;;;5050760;28;20123;-79
2023/03/03 12:37:13;;;;;;;49.93;22.63;;;;;;;;;;5045552;28;20036;-78
2023/03/03 12:39:39;;;;;;;47.93;23.47;;;;;;;;;;5044635;28;20029;-78
2023/03/03 12:42:26;;;;;;;50.93;24.30;;;;;;;;;;5046079;28;20358;-78
2023/03/03 12:44:58;;;;;;;46.83;22.23;;;;;;;;;;5045731;28;20032;-78
2023/03/03 12:47:47;;;;;;;50.00;24.83;;;;;;;;;;5058132;28;20040;-78
2023/03/03 12:50:21;;;;;;;48.83;24.03;;;;;;;;;;5025991;28;20037;-78
2023/03/03 12:53:09;;;;;;;47.83;21.90;;;;;;;;;;5059676;28;20032;-77
2023/03/03 12:55:35;;;;;;;50.10;23.33;;;;;;;;;;5042722;28;20037;-77
2023/03/03 12:58:07;;;;;;;47.70;23.73;;;;;;;;;;5059356;28;20035;-77
2023/03/03 13:00:48;;;;;;;56.42;26.88;;;;;;;;;;5056075;28;20441;-76
2023/03/03 13:03:20;;;;;;;54.43;24.90;;;;;;;;;;5047981;28;20040;-76
2023/03/03 13:06:04;;;;;;;58.28;27.88;;;;;;;;;;5059289;28;20029;-77
2023/03/03 13:08:34;;;;;;;61.07;30.47;;;;;;;;;;5049928;28;20116;-76
2023/03/03 13:11:27;;;;;;;58.70;26.47;;;;;;;;;;5045134;28;20033;-78
2023/03/03 13:13:57;;;;;;;58.87;29.23;;;;;;;;;;5034881;28;20032;-76
2023/03/03 13:16:36;;;;;;;57.30;27.47;;;;;;;;;;5061080;28;20035;-76
2023/03/03 13:19:23;;;;;;;59.93;28.00;;;;;;;;;;5044206;28;20028;-77
2023/03/03 13:21:55;;;;;;;64.57;27.53;;;;;;;;;;5061962;28;20037;-75
2023/03/03 13:24:27;;;;;;;66.35;31.45;;;;;;;;;;5062923;28;20036;-76
2023/03/03 13:27:07;;;;;;;72.57;32.53;;;;;;;;;;5060980;28;20051;-76
2023/03/03 13:29:48;;;;;;;68.97;32.47;;;;;;;;;;5062945;28;20032;-76
2023/03/03 13:32:31;;;;;;;75.23;33.60;;;;;;;;;;5048706;28;20465;-79
2023/03/03 13:34:57;;;;;;;82.07;34.80;;;;;;;;;;5046012;28;20040;-78
2023/03/03 13:37:31;;;;;;;84.03;35.70;;;;;;;;;;5042453;28;20028;-75
2023/03/03 13:39:57;;;;;;;83.70;35.60;;;;;;;;;;5042901;28;20113;-76
2023/03/03 13:42:43;;;;;;;87.00;37.30;;;;;;;;;;5044292;28;20074;-76
2023/03/03 13:45:15;;;;;;;87.10;36.93;;;;;;;;;;5044450;28;20530;-77
2023/03/03 13:47:56;;;;;;;86.32;35.33;;;;;;;;;;5049287;28;20088;-77
2023/03/03 13:50:26;;;;;;;84.03;36.50;;;;;;;;;;5061328;28;20029;-76
2023/03/03 13:53:06;;;;;;;84.93;34.30;;;;;;;;;;5065985;28;20036;-77
2023/03/03 13:55:35;;;;;;;87.97;37.47;;;;;;;;;;5062449;28;20048;-77
2023/03/03 13:58:09;;;;;;;86.20;36.03;;;;;;;;;;5061720;28;20029;-76
2023/03/03 14:00:52;;;;;;;83.43;35.57;;;;;;;;;;5044969;28;21692;-76
2023/03/03 14:03:31;;;;;;;81.83;34.77;;;;;;;;;;5064726;28;20128;-75
2023/03/03 14:06:02;;;;;;;71.73;33.27;;;;;;;;;;5049774;28;20021;-76
2023/03/03 14:08:34;;;;;;;79.37;32.20;;;;;;;;;;5065057;28;20029;-75
2023/03/03 14:11:22;;;;;;;76.93;33.60;;;;;;;;;;5061575;28;20020;-76
2023/03/03 14:14:01;;;;;;;79.77;34.07;;;;;;;;;;5048439;28;20048;-76
2023/03/03 14:16:30;;;;;;;85.60;34.70;;;;;;;;;;5061352;28;20028;-76
2023/03/03 14:18:57;;;;;;;80.50;33.47;;;;;;;;;;5061374;28;20025;-76
2023/03/03 14:21:29;;;;;;;81.83;35.03;;;;;;;;;;5046084;28;20067;-76
2023/03/03 14:24:09;;;;;;;87.72;36.47;;;;;;;;;;5048642;28;20029;-76
2023/03/03 14:26:49;;;;;;;76.70;30.33;;;;;;;;;;5059952;28;20025;-77
2023/03/03 14:29:27;;;;;;;84.33;34.03;;;;;;;;;;5049952;28;20349;-77
2023/03/03 14:31:53;;;;;;;80.27;32.67;;;;;;;;;;5061389;28;20036;-77
2023/03/03 14:34:25;;;;;;;79.47;33.80;;;;;;;;;;5043277;28;20021;-77